createdAt,value
2023-05-24T00:01:31.205Z,5.23
2023-05-24T00:05:37.606Z,5.00
2023-05-24T00:09:40.559Z,5.20
2023-05-24T00:13:45.003Z,5.07
2023-05-24T00:17:48.016Z,5.63
2023-05-24T00:21:51.108Z,6.07
2023-05-24T00:25:54.438Z,4.97
2023-05-24T00:29:58.744Z,4.90
2023-05-24T00:34:02.542Z,5.17
2023-05-24T00:38:05.370Z,5.03
2023-05-24T00:42:08.905Z,5.07
2023-05-24T00:46:20.268Z,5.80
2023-05-24T00:50:24.255Z,4.60
2023-05-24T00:54:29.384Z,4.13
2023-05-24T00:58:33.562Z,5.43
2023-05-24T01:02:39.153Z,5.63
2023-05-24T01:07:17.092Z,5.43
2023-05-24T01:11:30.126Z,5.00
2023-05-24T01:15:43.036Z,6.43
2023-05-24T01:20:06.825Z,5.90
2023-05-24T01:24:19.361Z,5.50
2023-05-24T01:28:25.628Z,6.17
2023-05-24T01:32:30.016Z,5.20
2023-05-24T01:36:33.852Z,5.87
2023-05-24T01:40:38.801Z,5.47
2023-05-24T01:44:49.224Z,6.13
2023-05-24T01:49:12.209Z,6.30
2023-05-24T01:53:20.741Z,6.03
2023-05-24T01:57:26.051Z,6.00
2023-05-24T02:01:31.917Z,7.70
2023-05-24T02:05:34.856Z,6.73
2023-05-24T02:09:42.608Z,6.10
2023-05-24T02:13:45.390Z,6.60
2023-05-24T02:17:54.580Z,6.80
2023-05-24T02:21:57.449Z,6.93
2023-05-24T02:26:01.415Z,6.60
2023-05-24T02:30:04.828Z,6.90
2023-05-24T02:34:09.469Z,6.80
2023-05-24T02:38:12.223Z,7.17
2023-05-24T02:42:15.240Z,7.63
2023-05-24T02:46:19.442Z,6.37
2023-05-24T02:50:23.548Z,7.07
2023-05-24T02:54:27.008Z,6.00
2023-05-24T02:58:30.630Z,6.33
2023-05-24T03:02:38.494Z,7.13
2023-05-24T03:06:43.675Z,6.43
2023-05-24T03:10:46.489Z,6.60
2023-05-24T03:14:50.903Z,6.33
2023-05-24T03:18:55.521Z,5.50
2023-05-24T03:23:00.651Z,5.93
2023-05-24T03:27:03.597Z,5.93
2023-05-24T03:31:07.727Z,6.60
2023-05-24T03:35:12.362Z,6.37
2023-05-24T03:39:16.618Z,6.33
2023-05-24T03:43:49.204Z,6.30
2023-05-24T03:47:53.833Z,6.53
2023-05-24T03:51:56.685Z,6.93
2023-05-24T03:56:02.359Z,6.30
2023-05-24T04:00:07.345Z,6.73
2023-05-24T04:04:17.029Z,7.00
2023-05-24T04:08:20.466Z,8.23
2023-05-24T04:12:25.332Z,8.63
2023-05-24T04:16:28.721Z,7.47
2023-05-24T04:20:33.547Z,6.53
2023-05-24T04:24:37.322Z,8.20
2023-05-24T04:28:42.361Z,8.30
2023-05-24T04:32:45.787Z,7.83
2023-05-24T04:36:49.480Z,6.70
2023-05-24T04:40:53.096Z,7.40
2023-05-24T04:44:57.986Z,8.13
2023-05-24T04:49:02.095Z,7.63
2023-05-24T04:53:05.300Z,8.43
2023-05-24T04:57:08.776Z,7.77
2023-05-24T05:01:13.101Z,7.03
2023-05-24T05:05:17.232Z,7.50
2023-05-24T05:09:21.396Z,7.70
2023-05-24T05:13:24.215Z,9.50
2023-05-24T05:17:30.059Z,7.97
2023-05-24T05:21:34.274Z,6.40
2023-05-24T05:25:37.330Z,7.60
2023-05-24T05:29:41.564Z,6.93
2023-05-24T05:33:46.251Z,7.40
2023-05-24T05:37:50.615Z,6.93
2023-05-24T05:41:54.337Z,7.50
2023-05-24T05:45:57.579Z,7.63
2023-05-24T05:50:01.778Z,8.57
2023-05-24T05:54:06.272Z,7.07
2023-05-24T05:58:16.502Z,8.17
2023-05-24T06:02:25.340Z,8.03
2023-05-24T06:06:31.660Z,9.03
2023-05-24T06:10:34.925Z,7.87
2023-05-24T06:14:39.666Z,7.03
2023-05-24T06:18:53.374Z,7.30
2023-05-24T06:23:32.926Z,8.17
2023-05-24T06:27:59.080Z,6.40
2023-05-24T06:32:02.957Z,7.27
2023-05-24T06:36:06.806Z,7.67
2023-05-24T06:40:14.230Z,5.93
2023-05-24T06:44:17.648Z,6.17
2023-05-24T06:48:21.287Z,5.73
2023-05-24T06:52:24.422Z,5.97
2023-05-24T06:56:29.192Z,7.37
2023-05-24T07:00:37.835Z,6.90
2023-05-24T07:04:42.387Z,7.27
2023-05-24T07:08:45.830Z,6.57
2023-05-24T07:12:51.100Z,6.37
2023-05-24T07:17:00.009Z,5.60
2023-05-24T07:21:03.272Z,6.23
2023-05-24T07:25:09.773Z,5.70
2023-05-24T07:29:16.930Z,5.63
2023-05-24T07:33:33.744Z,5.70
2023-05-24T07:37:56.538Z,5.80
2023-05-24T07:42:00.185Z,6.37
2023-05-24T07:46:08.317Z,5.87
2023-05-24T07:50:13.127Z,6.17
2023-05-24T07:54:16.665Z,5.77
2023-05-24T07:58:19.899Z,5.83
2023-05-24T08:02:24.720Z,6.20
2023-05-24T08:06:29.023Z,6.43
2023-05-24T08:10:32.633Z,5.93
2023-05-24T08:14:36.773Z,5.30
2023-05-24T08:18:42.471Z,6.03
2023-05-24T08:22:45.463Z,5.00
2023-05-24T08:26:51.931Z,5.10
2023-05-24T08:30:54.828Z,4.77
2023-05-24T08:35:17.587Z,5.63
2023-05-24T08:39:22.964Z,5.83
2023-05-24T08:43:29.195Z,5.60
2023-05-24T08:47:34.555Z,5.33
2023-05-24T08:51:41.553Z,5.90
2023-05-24T08:55:45.789Z,5.87
2023-05-24T08:59:50.400Z,5.60
2023-05-24T09:03:55.237Z,6.23
2023-05-24T09:08:03.489Z,5.83
2023-05-24T09:12:09.467Z,6.07
2023-05-24T09:16:13.746Z,4.90
2023-05-24T09:20:19.930Z,6.10
2023-05-24T09:24:26.732Z,4.77
2023-05-24T09:28:34.012Z,5.03
2023-05-24T09:32:37.516Z,5.50
2023-05-24T09:36:43.342Z,5.13
2023-05-24T09:41:01.085Z,5.60
2023-05-24T09:45:07.337Z,6.27
2023-05-24T09:49:10.522Z,5.57
2023-05-24T09:53:14.275Z,5.93
2023-05-24T09:57:25.577Z,5.73
2023-05-24T10:01:28.981Z,5.20
2023-05-24T10:05:32.501Z,5.10
2023-05-24T10:09:36.877Z,6.07
2023-05-24T10:13:42.212Z,5.30
2023-05-24T10:17:47.286Z,5.80
2023-05-24T10:21:59.569Z,4.27
2023-05-24T10:26:07.730Z,5.00
2023-05-24T10:30:22.495Z,4.73
2023-05-24T10:34:25.815Z,5.50
2023-05-24T10:38:31.002Z,4.90
2023-05-24T10:42:36.546Z,4.70
2023-05-24T10:47:08.675Z,5.40
2023-05-24T10:51:38.890Z,4.70
2023-05-24T10:55:58.060Z,4.83
2023-05-24T11:04:40.310Z,4.70
2023-05-24T11:08:46.506Z,5.17
2023-05-24T11:12:59.764Z,4.90
2023-05-24T11:17:02.945Z,5.30
2023-05-24T11:21:11.235Z,5.10
2023-05-24T11:25:14.783Z,4.63
2023-05-24T11:29:22.541Z,4.73
2023-05-24T11:33:27.115Z,5.53
2023-05-24T11:38:11.288Z,4.43
2023-05-24T11:42:46.840Z,4.43
2023-05-24T11:46:49.902Z,4.87
2023-05-24T11:51:28.798Z,4.30
2023-05-24T11:56:02.036Z,4.63
2023-05-24T12:00:26.356Z,4.70
2023-05-24T12:04:35.683Z,4.00
2023-05-24T12:08:39.129Z,4.27
2023-05-24T12:12:47.983Z,4.70
2023-05-24T12:16:51.603Z,6.10
2023-05-24T12:20:54.770Z,4.73
2023-05-24T12:24:58.448Z,4.80
2023-05-24T12:29:05.263Z,5.07
2023-05-24T12:33:09.299Z,3.80
2023-05-24T12:37:16.959Z,4.33
2023-05-24T12:41:20.183Z,4.77
2023-05-24T12:45:26.706Z,5.07
2023-05-24T12:49:33.139Z,4.77
2023-05-24T12:53:36.613Z,4.67
2023-05-24T12:57:40.974Z,4.50
2023-05-24T13:01:52.645Z,4.83
2023-05-24T13:05:56.986Z,3.67
2023-05-24T13:10:01.337Z,4.93
2023-05-24T13:14:05.027Z,4.93
2023-05-24T13:18:13.205Z,4.40
2023-05-24T13:22:16.804Z,4.20
2023-05-24T13:26:20.331Z,4.73
2023-05-24T13:30:27.938Z,4.33
2023-05-24T13:34:34.420Z,4.57
2023-05-24T13:38:42.721Z,4.80
2023-05-24T13:42:45.957Z,4.80
2023-05-24T13:46:51.018Z,4.40
2023-05-24T13:50:57.579Z,4.20
2023-05-24T13:55:01.504Z,5.20
2023-05-24T13:59:05.528Z,4.10
2023-05-24T14:03:15.962Z,3.83
2023-05-24T14:07:20.910Z,4.20
2023-05-24T14:11:24.810Z,4.17
2023-05-24T14:15:28.018Z,3.90
2023-05-24T14:19:31.584Z,4.07
2023-05-24T14:23:37.493Z,4.00
2023-05-24T14:27:44.250Z,3.73
2023-05-24T14:31:47.489Z,3.70
2023-05-24T14:35:51.863Z,4.17
2023-05-24T14:40:07.093Z,4.40
2023-05-24T14:44:37.394Z,4.03
2023-05-24T14:48:41.523Z,4.47
2023-05-24T14:52:47.249Z,3.90
2023-05-24T14:56:52.678Z,3.87
2023-05-24T15:00:56.176Z,4.07
2023-05-24T15:05:00.755Z,3.47
2023-05-24T15:09:04.827Z,3.23
2023-05-24T15:13:13.759Z,3.60
2023-05-24T15:17:20.906Z,3.30
2023-05-24T15:21:30.482Z,3.77
2023-05-24T15:25:34.708Z,3.07
2023-05-24T15:29:39.490Z,3.07
2023-05-24T15:33:49.137Z,3.80
2023-05-24T15:37:52.531Z,3.23
2023-05-24T15:41:57.039Z,4.20
2023-05-24T15:46:09.670Z,4.03
2023-05-24T15:50:13.052Z,4.20
2023-05-24T15:54:17.538Z,3.80
2023-05-24T15:58:21.781Z,4.20
2023-05-24T16:02:58.975Z,3.53
2023-05-24T16:07:15.516Z,3.87
2023-05-24T16:11:32.521Z,4.17
2023-05-24T16:15:37.465Z,4.20
2023-05-24T16:19:42.789Z,4.80
2023-05-24T16:23:51.901Z,3.93
2023-05-24T16:28:01.063Z,4.50
2023-05-24T16:32:14.263Z,4.43
2023-05-24T16:36:28.051Z,4.30
2023-05-24T16:40:31.627Z,5.40
2023-05-24T16:44:34.563Z,4.30
2023-05-24T16:48:37.805Z,4.50
2023-05-24T16:52:46.530Z,4.10
2023-05-24T16:56:56.711Z,4.63
2023-05-24T17:01:06.542Z,4.40
2023-05-24T17:05:25.577Z,4.30
2023-05-24T17:09:41.319Z,4.33
2023-05-24T17:14:06.115Z,4.80
2023-05-24T17:18:34.347Z,4.10
2023-05-24T17:22:51.937Z,4.20
2023-05-24T17:27:03.688Z,4.10
2023-05-24T17:31:09.056Z,4.37
2023-05-24T17:35:12.840Z,4.10
2023-05-24T17:39:20.031Z,4.20
2023-05-24T17:43:33.128Z,4.00
2023-05-24T17:47:51.170Z,4.37
2023-05-24T17:52:26.135Z,4.00
2023-05-24T17:57:02.981Z,4.13
2023-05-24T18:01:44.406Z,4.03
2023-05-24T18:06:17.249Z,4.70
2023-05-24T18:10:49.950Z,4.37
2023-05-24T18:14:59.078Z,3.90
2023-05-24T18:19:05.213Z,4.33
2023-05-24T18:23:08.672Z,4.07
2023-05-24T18:27:12.311Z,4.03
2023-05-24T18:31:16.223Z,3.70
2023-05-24T18:35:27.808Z,4.60
2023-05-24T18:39:31.374Z,3.90
2023-05-24T18:43:34.566Z,4.20
2023-05-24T18:47:39.527Z,4.50
2023-05-24T18:51:44.938Z,4.47
2023-05-24T18:55:49.978Z,3.73
2023-05-24T18:59:52.927Z,4.00
2023-05-24T19:04:08.625Z,3.70
2023-05-24T19:08:14.575Z,3.63
2023-05-24T19:12:28.852Z,3.77
2023-05-24T19:16:32.451Z,3.67
2023-05-24T19:20:35.607Z,3.33
2023-05-24T19:24:42.412Z,3.80
2023-05-24T19:28:50.633Z,4.27
2023-05-24T19:32:54.783Z,4.00
2023-05-24T19:36:59.020Z,3.73
2023-05-24T19:41:06.198Z,4.10
2023-05-24T19:45:25.201Z,4.07
2023-05-24T19:49:28.219Z,3.37
2023-05-24T19:53:43.418Z,3.97
2023-05-24T19:57:59.502Z,4.60
2023-05-24T20:02:22.080Z,5.80
2023-05-24T20:06:39.668Z,5.10
2023-05-24T20:10:58.845Z,3.90
2023-05-24T20:15:16.428Z,6.07
2023-05-24T20:19:36.865Z,4.53
2023-05-24T20:23:48.070Z,4.60
2023-05-24T20:27:58.046Z,4.50
2023-05-24T20:32:19.926Z,4.63
2023-05-24T20:36:40.110Z,5.30
2023-05-24T20:41:00.804Z,4.97
2023-05-24T20:45:19.011Z,4.50
2023-05-24T20:49:23.422Z,4.80
2023-05-24T20:53:44.482Z,5.40
2023-05-24T20:57:55.836Z,5.00
2023-05-24T21:02:28.530Z,4.60
2023-05-24T21:06:50.361Z,3.93
2023-05-24T21:11:08.863Z,4.50
2023-05-24T21:15:28.817Z,5.37
2023-05-24T21:19:50.902Z,6.40
2023-05-24T21:24:20.940Z,6.80
2023-05-24T21:28:54.089Z,5.00
2023-05-24T21:33:28.084Z,5.70
2023-05-24T21:37:57.150Z,4.67
2023-05-24T21:42:27.567Z,4.53
2023-05-24T21:46:30.767Z,5.37
2023-05-24T21:50:34.939Z,4.70
2023-05-24T21:54:37.725Z,4.50
2023-05-24T21:58:46.071Z,4.83
2023-05-24T22:03:07.396Z,3.80
2023-05-24T22:07:43.274Z,4.50
2023-05-24T22:12:20.676Z,4.37
2023-05-24T22:16:56.729Z,4.33
2023-05-24T22:21:33.752Z,4.47
2023-05-24T22:26:19.587Z,4.90
2023-05-24T22:30:22.424Z,4.73
2023-05-24T22:34:30.054Z,4.50
2023-05-24T22:38:32.887Z,4.73
2023-05-24T22:42:35.647Z,5.10
2023-05-24T22:46:38.450Z,4.83
2023-05-24T22:50:42.635Z,5.23
2023-05-24T22:54:45.690Z,6.40
2023-05-24T22:58:48.481Z,4.53
2023-05-24T23:02:53.295Z,5.03
2023-05-24T23:06:57.629Z,5.30
2023-05-24T23:11:10.174Z,5.27
2023-05-24T23:15:23.192Z,5.17
2023-05-24T23:19:30.058Z,5.67
2023-05-24T23:23:34.291Z,5.40
2023-05-24T23:27:37.258Z,5.40
2023-05-24T23:31:40.550Z,5.30
2023-05-24T23:35:43.581Z,6.20
2023-05-24T23:39:48.215Z,5.53
2023-05-24T23:43:52.302Z,6.27
2023-05-24T23:47:55.242Z,5.57
2023-05-24T23:51:58.081Z,5.57
2023-05-24T23:56:02.330Z,6.70
